createdAt,value
2022-10-02T00:01:12.870Z,68.29
2022-10-02T00:03:45.915Z,67.71
2022-10-02T00:06:20.585Z,67.78
2022-10-02T00:08:50.481Z,67.75
2022-10-02T00:11:21.544Z,68.32
2022-10-02T00:13:51.011Z,67.91
2022-10-02T00:16:27.918Z,68.86
2022-10-02T00:19:04.151Z,68.46
2022-10-02T00:21:46.434Z,68.20
2022-10-02T00:24:17.145Z,67.58
2022-10-02T00:26:50.959Z,67.60
2022-10-02T00:29:31.376Z,68.95
2022-10-02T00:32:02.999Z,68.78
2022-10-02T00:34:33.698Z,68.25
2022-10-02T00:37:03.416Z,67.61
2022-10-02T00:39:36.641Z,67.85
2022-10-02T00:42:11.878Z,67.77
2022-10-02T00:44:58.493Z,67.50
2022-10-02T00:47:29.892Z,67.65
2022-10-02T00:50:00.925Z,67.79
2022-10-02T00:52:45.049Z,67.98
2022-10-02T00:55:37.985Z,67.82
2022-10-02T00:58:24.177Z,67.92
2022-10-02T01:00:59.792Z,67.96
2022-10-02T01:03:30.254Z,69.41
2022-10-02T01:05:58.814Z,67.86
2022-10-02T01:08:32.118Z,68.28
2022-10-02T01:11:00.618Z,68.27
2022-10-02T01:13:32.573Z,69.81
2022-10-02T01:16:03.326Z,67.81
2022-10-02T01:18:34.484Z,68.02
2022-10-02T01:21:03.946Z,67.97
2022-10-02T01:23:38.618Z,67.56
2022-10-02T01:26:08.771Z,66.94
2022-10-02T01:28:39.728Z,66.04
2022-10-02T01:31:10.276Z,65.96
2022-10-02T01:33:39.711Z,66.39
2022-10-02T01:36:12.298Z,66.47
2022-10-02T01:38:41.169Z,66.24
2022-10-02T01:41:12.258Z,66.28
2022-10-02T01:43:42.552Z,66.72
2022-10-02T01:46:26.837Z,66.80
2022-10-02T01:48:56.917Z,65.30
2022-10-02T01:51:32.659Z,65.58
2022-10-02T01:54:04.839Z,66.43
2022-10-02T01:56:39.608Z,66.06
2022-10-02T01:59:09.862Z,65.37
2022-10-02T02:01:41.219Z,65.74
2022-10-02T02:04:14.436Z,65.51
2022-10-02T02:06:44.690Z,66.65
2022-10-02T02:09:21.334Z,67.16
2022-10-02T02:11:59.548Z,66.05
2022-10-02T02:14:29.099Z,65.06
2022-10-02T02:16:59.676Z,65.76
2022-10-02T02:19:29.202Z,66.05
2022-10-02T02:21:59.864Z,66.35
2022-10-02T02:24:29.278Z,67.00
2022-10-02T02:27:01.887Z,66.63
2022-10-02T02:29:31.213Z,67.08
2022-10-02T02:32:00.222Z,67.05
2022-10-02T02:34:29.584Z,66.41
2022-10-02T02:37:01.377Z,65.97
2022-10-02T02:39:30.268Z,67.95
2022-10-02T02:42:04.659Z,66.98
2022-10-02T02:44:34.848Z,67.49
2022-10-02T02:47:04.927Z,66.93
2022-10-02T02:49:35.780Z,67.23
2022-10-02T02:52:05.235Z,67.13
2022-10-02T02:54:34.662Z,67.96
2022-10-02T02:57:04.988Z,68.24
2022-10-02T02:59:35.242Z,67.13
2022-10-02T03:02:03.862Z,68.26
2022-10-02T03:04:34.862Z,67.37
2022-10-02T03:07:06.765Z,67.81
2022-10-02T03:09:41.016Z,68.80
2022-10-02T03:12:14.054Z,68.69
2022-10-02T03:15:00.605Z,68.81
2022-10-02T03:17:37.566Z,68.11
2022-10-02T03:20:07.436Z,69.62
2022-10-02T03:22:41.257Z,68.55
2022-10-02T03:25:13.819Z,68.17
2022-10-02T03:27:43.681Z,68.47
2022-10-02T03:30:20.742Z,68.88
2022-10-02T03:32:51.436Z,68.93
2022-10-02T03:35:25.708Z,67.79
2022-10-02T03:37:55.080Z,67.43
2022-10-02T03:40:24.433Z,68.03
2022-10-02T03:42:52.973Z,68.34
2022-10-02T03:45:51.755Z,68.51
2022-10-02T03:48:20.280Z,67.39
2022-10-02T03:50:50.765Z,67.58
2022-10-02T03:53:22.311Z,67.88
2022-10-02T03:55:54.914Z,67.63
2022-10-02T03:58:23.174Z,67.92
2022-10-02T04:00:56.108Z,68.42
2022-10-02T04:03:25.692Z,68.66
2022-10-02T04:05:56.431Z,67.65
2022-10-02T04:08:26.199Z,67.58
2022-10-02T04:10:55.948Z,66.95
2022-10-02T04:13:25.963Z,66.89
2022-10-02T04:16:00.195Z,67.34
2022-10-02T04:18:29.290Z,68.81
2022-10-02T04:20:59.578Z,68.54
2022-10-02T04:23:28.931Z,67.95
2022-10-02T04:26:00.586Z,67.94
2022-10-02T04:28:29.928Z,67.76
2022-10-02T04:31:02.869Z,67.06
2022-10-02T04:33:36.369Z,67.01
2022-10-02T04:36:10.620Z,67.50
2022-10-02T04:38:42.636Z,67.80
2022-10-02T04:41:17.357Z,68.52
2022-10-02T04:43:48.545Z,68.10
2022-10-02T04:46:29.650Z,67.79
2022-10-02T04:49:06.603Z,68.24
2022-10-02T04:51:43.240Z,68.24
2022-10-02T04:54:17.271Z,68.86
2022-10-02T04:59:46.258Z,67.49
2022-10-02T05:02:20.975Z,67.84
2022-10-02T05:05:02.532Z,68.11
2022-10-02T05:07:49.030Z,67.93
2022-10-02T05:10:33.147Z,68.21
2022-10-02T05:13:08.729Z,68.08
2022-10-02T05:15:41.455Z,67.86
2022-10-02T05:18:17.998Z,68.71
2022-10-02T05:20:52.410Z,69.29
2022-10-02T05:23:25.023Z,68.91
2022-10-02T05:26:01.512Z,68.60
2022-10-02T05:28:44.902Z,68.48
2022-10-02T05:31:17.960Z,68.89
2022-10-02T05:34:04.807Z,68.58
2022-10-02T05:36:47.402Z,67.52
2022-10-02T05:39:16.626Z,67.91
2022-10-02T05:41:50.398Z,67.19
2022-10-02T05:44:26.908Z,67.53
2022-10-02T05:46:56.982Z,66.69
2022-10-02T05:49:27.662Z,66.54
2022-10-02T05:52:01.305Z,65.63
2022-10-02T05:54:34.259Z,65.75
2022-10-02T05:57:12.987Z,65.54
2022-10-02T05:59:42.624Z,65.89
2022-10-02T06:02:14.381Z,65.40
2022-10-02T06:04:44.100Z,65.01
2022-10-02T06:07:17.909Z,64.99
2022-10-02T06:09:47.619Z,65.66
2022-10-02T06:12:18.571Z,63.65
2022-10-02T06:14:50.704Z,64.39
2022-10-02T06:17:20.262Z,64.60
2022-10-02T06:19:50.229Z,65.41
2022-10-02T06:22:20.205Z,65.10
2022-10-02T06:24:50.226Z,65.96
2022-10-02T06:27:19.635Z,64.52
2022-10-02T06:29:49.749Z,64.91
2022-10-02T06:32:20.010Z,64.89
2022-10-02T06:34:51.070Z,64.16
2022-10-02T06:37:24.327Z,65.12
2022-10-02T06:40:09.050Z,64.41
2022-10-02T06:42:43.419Z,65.05
2022-10-02T06:45:17.062Z,65.17
2022-10-02T06:47:57.544Z,65.93
2022-10-02T06:50:31.500Z,63.79
2022-10-02T06:53:02.987Z,64.19
2022-10-02T06:55:35.252Z,65.19
2022-10-02T06:58:26.769Z,63.68
2022-10-02T07:00:56.807Z,63.12
2022-10-02T07:03:38.717Z,63.97
2022-10-02T07:06:12.692Z,64.31
2022-10-02T07:08:51.071Z,62.93
2022-10-02T07:11:27.241Z,63.15
2022-10-02T07:14:11.245Z,63.20
2022-10-02T07:16:47.130Z,62.94
2022-10-02T07:19:23.446Z,62.69
2022-10-02T07:21:55.073Z,63.04
2022-10-02T07:24:32.209Z,62.62
2022-10-02T07:27:01.270Z,63.71
2022-10-02T07:29:38.750Z,61.83
2022-10-02T07:32:22.792Z,62.47
2022-10-02T07:34:59.181Z,62.32
2022-10-02T07:37:29.094Z,62.04
2022-10-02T07:40:03.861Z,61.70
2022-10-02T07:42:42.830Z,61.32
2022-10-02T07:45:35.880Z,61.54
2022-10-02T07:48:19.999Z,60.63
2022-10-02T07:51:03.034Z,59.92
2022-10-02T07:53:39.098Z,60.25
2022-10-02T07:56:08.087Z,58.74
2022-10-02T07:58:40.226Z,59.93
2022-10-02T08:01:14.098Z,59.67
2022-10-02T08:03:46.674Z,58.48
2022-10-02T08:06:15.110Z,58.21
2022-10-02T08:08:44.565Z,57.67
2022-10-02T08:11:18.729Z,58.46
2022-10-02T08:13:48.951Z,58.54
2022-10-02T08:16:20.847Z,58.26
2022-10-02T08:19:04.135Z,57.26
2022-10-02T08:21:33.518Z,56.96
2022-10-02T08:24:03.354Z,55.78
2022-10-02T08:26:35.346Z,55.75
2022-10-02T08:29:12.200Z,58.62
2022-10-02T08:31:43.703Z,58.10
2022-10-02T08:34:14.133Z,58.27
2022-10-02T08:37:00.546Z,58.00
2022-10-02T08:39:42.143Z,57.62
2022-10-02T08:42:59.846Z,57.42
2022-10-02T08:46:11.873Z,56.50
2022-10-02T08:49:17.253Z,56.51
2022-10-02T08:51:53.272Z,57.31
2022-10-02T08:54:34.415Z,56.82
2022-10-02T08:57:24.619Z,55.46
2022-10-02T08:59:57.743Z,54.59
2022-10-02T09:02:55.811Z,55.85
2022-10-02T09:05:48.164Z,55.79
2022-10-02T09:08:33.287Z,55.93
2022-10-02T09:11:26.358Z,53.86
2022-10-02T09:14:17.766Z,55.18
2022-10-02T09:16:55.638Z,54.33
2022-10-02T09:19:51.796Z,54.54
2022-10-02T09:22:59.963Z,54.01
2022-10-02T09:25:57.386Z,52.81
2022-10-02T09:28:45.052Z,52.88
2022-10-02T09:31:31.978Z,53.60
2022-10-02T09:37:36.463Z,52.33
2022-10-02T09:50:19.674Z,51.41
2022-10-02T10:03:03.734Z,49.63
2022-10-02T10:16:08.692Z,49.09
2022-10-02T10:18:51.645Z,49.56
2022-10-02T10:22:01.453Z,48.25
2022-10-02T10:24:48.834Z,48.29
2022-10-02T10:30:28.715Z,47.34
2022-10-02T10:33:37.320Z,48.19
2022-10-02T10:44:08.613Z,47.76
2022-10-02T10:47:00.891Z,49.18
2022-10-02T10:50:08.426Z,48.96
2022-10-02T10:52:51.574Z,49.90
2022-10-02T10:55:25.979Z,48.97
2022-10-02T10:58:39.594Z,48.56
2022-10-02T11:01:14.613Z,48.90
2022-10-02T11:04:03.761Z,49.49
2022-10-02T11:09:50.500Z,48.60
2022-10-02T11:12:33.085Z,49.83
2022-10-02T11:15:13.626Z,50.48
2022-10-02T11:28:21.859Z,50.90
2022-10-02T11:31:11.740Z,50.44
2022-10-02T11:33:52.917Z,50.11
2022-10-02T11:36:51.523Z,50.32
2022-10-02T11:39:33.875Z,50.61
2022-10-02T11:42:16.226Z,51.15
2022-10-02T11:45:05.621Z,50.64
2022-10-02T11:48:06.891Z,50.79
2022-10-02T11:50:40.454Z,50.96
2022-10-02T11:53:18.337Z,50.43
2022-10-02T11:55:57.872Z,51.21
2022-10-02T11:58:59.448Z,50.83
2022-10-02T12:01:35.284Z,51.26
2022-10-02T12:04:25.828Z,53.49
2022-10-02T12:07:15.064Z,53.53
2022-10-02T12:09:55.616Z,51.59
2022-10-02T12:12:39.195Z,52.74
2022-10-02T12:15:25.556Z,53.52
2022-10-02T12:18:00.403Z,53.38
2022-10-02T12:21:02.438Z,53.69
2022-10-02T12:24:02.458Z,55.02
2022-10-02T12:30:04.980Z,54.61
2022-10-02T12:32:46.799Z,55.44
2022-10-02T12:35:22.403Z,55.15
2022-10-02T12:37:54.697Z,54.39
2022-10-02T12:40:34.735Z,54.19
2022-10-02T12:43:23.161Z,53.79
2022-10-02T12:46:00.917Z,54.96
2022-10-02T12:48:38.426Z,55.12
2022-10-02T12:51:23.722Z,54.69
2022-10-02T12:54:10.459Z,55.27
2022-10-02T12:56:57.466Z,55.12
2022-10-02T12:59:27.919Z,54.59
2022-10-02T13:02:06.165Z,54.91
2022-10-02T13:08:05.597Z,55.06
2022-10-02T13:10:55.134Z,54.96
2022-10-02T13:13:31.609Z,55.44
2022-10-02T13:16:15.020Z,55.92
2022-10-02T13:19:11.604Z,55.28
2022-10-02T13:22:01.060Z,55.54
2022-10-02T13:24:53.490Z,55.79
2022-10-02T13:27:44.730Z,55.43
2022-10-02T13:36:47.915Z,54.33
2022-10-02T13:39:23.894Z,54.59
2022-10-02T13:42:05.090Z,54.59
2022-10-02T13:44:36.872Z,55.01
2022-10-02T13:50:54.746Z,55.64
2022-10-02T13:53:43.881Z,55.53
2022-10-02T13:56:26.763Z,55.27
2022-10-02T13:59:02.163Z,55.57
2022-10-02T14:01:42.094Z,55.21
2022-10-02T14:07:46.748Z,55.01
2022-10-02T14:10:29.053Z,54.92
2022-10-02T14:13:02.405Z,54.82
2022-10-02T14:15:51.014Z,54.93
2022-10-02T14:18:51.060Z,55.44
2022-10-02T14:21:27.992Z,55.26
2022-10-02T14:24:14.642Z,55.53
2022-10-02T14:26:54.546Z,54.80
2022-10-02T14:29:29.405Z,54.04
2022-10-02T14:32:29.297Z,54.97
2022-10-02T14:35:13.499Z,55.09
2022-10-02T14:37:58.458Z,54.16
2022-10-02T14:40:33.761Z,55.07
2022-10-02T14:43:12.881Z,55.44
2022-10-02T14:45:51.946Z,55.67
2022-10-02T14:48:34.135Z,56.55
2022-10-02T14:51:15.362Z,55.63
2022-10-02T14:54:01.376Z,56.65
2022-10-02T14:56:44.908Z,55.96
2022-10-02T14:59:27.731Z,55.81
2022-10-02T15:02:11.754Z,56.39
2022-10-02T15:04:45.661Z,56.25
2022-10-02T15:07:14.387Z,56.43
2022-10-02T15:10:11.993Z,57.05
2022-10-02T15:12:58.440Z,57.47
2022-10-02T15:15:34.894Z,57.77
2022-10-02T15:18:20.230Z,58.32
2022-10-02T15:20:57.712Z,58.64
2022-10-02T15:23:41.452Z,58.41
2022-10-02T15:26:23.704Z,58.98
2022-10-02T15:29:10.761Z,58.42
2022-10-02T15:31:59.806Z,59.49
2022-10-02T15:34:32.530Z,60.26
2022-10-02T15:37:03.438Z,59.44
2022-10-02T15:39:38.708Z,60.66
2022-10-02T15:42:18.875Z,59.98
2022-10-02T15:44:56.929Z,60.67
2022-10-02T15:47:45.109Z,61.14
2022-10-02T15:50:35.095Z,60.39
2022-10-02T15:53:08.379Z,61.75
2022-10-02T15:55:42.608Z,61.64
2022-10-02T15:58:18.567Z,61.50
2022-10-02T16:01:17.030Z,60.76
2022-10-02T16:03:54.908Z,62.02
2022-10-02T16:06:25.824Z,62.07
2022-10-02T16:09:06.748Z,61.71
2022-10-02T16:11:58.259Z,61.86
2022-10-02T16:14:35.680Z,62.35
2022-10-02T16:20:22.486Z,60.74
2022-10-02T16:23:12.844Z,62.95
2022-10-02T16:26:00.386Z,62.12
2022-10-02T16:28:35.030Z,61.06
2022-10-02T16:31:17.866Z,62.13
2022-10-02T16:33:51.496Z,61.21
2022-10-02T16:36:32.029Z,61.53
2022-10-02T16:39:06.078Z,61.02
2022-10-02T16:41:39.099Z,61.63
2022-10-02T16:44:26.327Z,62.54
2022-10-02T16:49:50.494Z,61.53
2022-10-02T16:52:25.629Z,61.61
2022-10-02T16:54:59.519Z,61.95
2022-10-02T16:57:40.202Z,63.18
2022-10-02T17:00:14.457Z,62.16
2022-10-02T17:02:45.679Z,63.80
2022-10-02T17:05:23.711Z,63.61
2022-10-02T17:08:01.946Z,63.40
2022-10-02T17:10:37.337Z,63.06
2022-10-02T17:13:16.191Z,62.87
2022-10-02T17:15:49.646Z,63.15
2022-10-02T17:18:26.069Z,62.97
2022-10-02T17:20:56.425Z,62.92
2022-10-02T17:23:30.700Z,61.36
2022-10-02T17:28:58.312Z,62.83
2022-10-02T17:31:34.704Z,62.24
2022-10-02T17:34:18.599Z,61.04
2022-10-02T17:36:51.522Z,61.91
2022-10-02T17:39:51.689Z,62.63
2022-10-02T17:42:23.959Z,62.73
2022-10-02T17:44:55.071Z,62.14
2022-10-02T17:47:39.294Z,61.57
2022-10-02T17:50:42.423Z,62.59
2022-10-02T17:53:46.988Z,62.17
2022-10-02T18:00:04.470Z,62.09
2022-10-02T18:02:57.058Z,62.77
2022-10-02T18:09:18.181Z,61.21
2022-10-02T18:12:15.040Z,61.66
2022-10-02T18:14:55.122Z,61.46
2022-10-02T18:17:31.731Z,62.21
2022-10-02T18:20:10.723Z,61.68
2022-10-02T18:22:48.631Z,62.85
2022-10-02T18:25:20.537Z,61.87
2022-10-02T18:28:03.490Z,61.11
2022-10-02T18:30:43.529Z,61.26
2022-10-02T18:33:48.782Z,62.68
2022-10-02T18:36:20.714Z,62.94
2022-10-02T18:38:55.027Z,62.25
2022-10-02T18:41:32.432Z,63.19
2022-10-02T18:44:04.193Z,62.99
2022-10-02T18:46:39.158Z,62.53
2022-10-02T18:49:21.934Z,62.35
2022-10-02T18:52:08.903Z,62.32
2022-10-02T18:54:41.510Z,63.61
2022-10-02T18:57:24.797Z,62.51
2022-10-02T18:59:56.648Z,63.83
2022-10-02T19:02:36.611Z,64.33
2022-10-02T19:05:31.139Z,63.69
2022-10-02T19:08:14.886Z,63.02
2022-10-02T19:10:48.276Z,63.61
2022-10-02T19:13:26.177Z,62.99
2022-10-02T19:16:01.207Z,63.03
2022-10-02T19:18:37.331Z,62.83
2022-10-02T19:21:21.472Z,63.75
2022-10-02T19:23:55.656Z,62.75
2022-10-02T19:26:31.557Z,63.98
2022-10-02T19:29:02.980Z,63.86
2022-10-02T19:31:44.953Z,64.25
2022-10-02T19:34:18.830Z,64.71
2022-10-02T19:36:54.622Z,63.39
2022-10-02T19:39:32.844Z,64.47
2022-10-02T19:42:38.202Z,64.26
2022-10-02T19:45:24.517Z,64.84
2022-10-02T19:47:57.310Z,64.65
2022-10-02T19:50:41.402Z,66.16
2022-10-02T19:53:21.649Z,66.00
2022-10-02T19:56:13.351Z,64.73
2022-10-02T19:58:57.278Z,65.38
2022-10-02T20:01:30.536Z,64.88
2022-10-02T20:04:00.600Z,66.43
2022-10-02T20:06:32.768Z,65.75
2022-10-02T20:09:02.825Z,67.03
2022-10-02T20:11:38.082Z,66.95
2022-10-02T20:14:09.361Z,66.70
2022-10-02T20:16:56.722Z,66.38
2022-10-02T20:19:26.201Z,68.02
2022-10-02T20:22:01.187Z,68.16
2022-10-02T20:24:32.992Z,67.43
2022-10-02T20:27:04.281Z,68.81
2022-10-02T20:29:34.837Z,67.74
2022-10-02T20:32:10.623Z,69.35
2022-10-02T20:34:45.709Z,68.96
2022-10-02T20:37:15.959Z,69.91
2022-10-02T20:40:09.982Z,69.21
2022-10-02T20:42:42.428Z,68.01
2022-10-02T20:45:12.564Z,68.69
2022-10-02T20:48:01.454Z,68.87
2022-10-02T20:50:59.856Z,69.73
2022-10-02T20:53:37.766Z,69.93
2022-10-02T20:56:15.954Z,70.17
2022-10-02T20:58:55.081Z,69.22
2022-10-02T21:01:30.748Z,69.35
2022-10-02T21:04:19.831Z,69.34
2022-10-02T21:07:09.782Z,69.75
2022-10-02T21:09:57.843Z,68.91
2022-10-02T21:12:47.396Z,69.68
2022-10-02T21:15:34.363Z,69.73
2022-10-02T21:18:30.938Z,68.55
2022-10-02T21:21:07.990Z,70.18
2022-10-02T21:23:56.927Z,70.04
2022-10-02T21:26:46.115Z,70.40
2022-10-02T21:29:44.590Z,70.43
2022-10-02T21:32:25.555Z,71.86
2022-10-02T21:38:32.203Z,71.47
2022-10-02T21:41:21.119Z,71.94
2022-10-02T21:44:25.374Z,71.87
2022-10-02T21:47:12.679Z,72.18
2022-10-02T21:53:36.563Z,71.58
2022-10-02T21:56:23.939Z,72.90
2022-10-02T22:02:19.134Z,71.94
2022-10-02T22:08:22.700Z,71.88
2022-10-02T22:11:01.530Z,71.74
2022-10-02T22:16:30.465Z,72.17
2022-10-02T22:19:05.064Z,72.10
2022-10-02T22:21:49.841Z,71.04
2022-10-02T22:24:57.099Z,71.07
2022-10-02T22:27:43.830Z,70.86
2022-10-02T22:33:56.426Z,70.15
2022-10-02T22:40:28.312Z,69.76
2022-10-02T22:43:01.457Z,70.19
2022-10-02T22:45:34.548Z,69.92
2022-10-02T22:51:32.428Z,68.72
2022-10-02T22:54:24.081Z,69.99
2022-10-02T23:00:07.439Z,69.74
2022-10-02T23:02:45.630Z,69.48
2022-10-02T23:05:17.390Z,68.65
2022-10-02T23:07:48.015Z,69.42
2022-10-02T23:10:18.428Z,69.86
2022-10-02T23:12:50.799Z,69.89
2022-10-02T23:21:53.411Z,70.09
2022-10-02T23:31:12.265Z,70.00
2022-10-02T23:33:42.380Z,71.07
2022-10-02T23:36:24.466Z,70.59
2022-10-02T23:39:30.599Z,70.33
2022-10-02T23:42:16.293Z,71.07
2022-10-02T23:45:14.158Z,72.18
2022-10-02T23:47:47.072Z,71.68
2022-10-02T23:50:29.094Z,71.51
2022-10-02T23:53:33.100Z,71.17
2022-10-02T23:56:09.696Z,71.77
